createdAt,value
2019-01-31T00:00:46.734Z,99669.71
2019-01-31T00:03:39.746Z,99682.59
2019-01-31T00:06:27.825Z,99682.81
2019-01-31T00:09:39.298Z,99682.08
2019-01-31T00:12:46.571Z,99680.03
2019-01-31T00:15:48.347Z,99683.81
2019-01-31T00:18:58.174Z,99687.11
2019-01-31T00:22:03.357Z,99677.00
2019-01-31T00:24:39.969Z,99678.94
2019-01-31T00:27:41.953Z,99678.98
2019-01-31T00:30:34.553Z,99671.18
2019-01-31T00:33:26.217Z,99663.64
2019-01-31T00:36:34.141Z,99668.70
2019-01-31T00:39:40.499Z,99665.11
2019-01-31T00:42:41.960Z,99661.20
2019-01-31T00:45:59.279Z,99665.33
2019-01-31T00:49:08.302Z,99665.97
2019-01-31T00:52:35.154Z,99658.51
2019-01-31T00:55:41.114Z,99662.80
2019-01-31T00:58:42.822Z,99665.11
2019-01-31T01:01:46.279Z,99660.78
2019-01-31T01:05:04.729Z,99658.33
2019-01-31T01:08:04.831Z,99651.16
2019-01-31T01:10:57.702Z,99656.36
2019-01-31T01:13:51.363Z,99654.84
2019-01-31T01:16:52.361Z,99659.02
2019-01-31T01:19:34.615Z,99663.73
2019-01-31T01:22:32.335Z,99657.37
2019-01-31T01:25:28.403Z,99654.36
2019-01-31T01:28:27.192Z,99656.25
2019-01-31T01:31:17.890Z,99651.84
2019-01-31T01:34:17.022Z,99647.45
2019-01-31T01:37:18.273Z,99645.67
2019-01-31T01:40:43.438Z,99653.38
2019-01-31T01:43:56.996Z,99653.61
2019-01-31T01:46:40.842Z,99650.30
2019-01-31T01:49:22.534Z,99646.99
2019-01-31T01:52:15.960Z,99646.62
2019-01-31T01:55:34.975Z,99645.30
2019-01-31T01:58:43.688Z,99645.03
2019-01-31T02:01:26.400Z,99645.63
2019-01-31T02:04:33.801Z,99644.14
2019-01-31T02:07:52.065Z,99636.56
2019-01-31T02:10:59.436Z,99638.07
2019-01-31T02:13:50.936Z,99641.72
2019-01-31T02:16:53.560Z,99642.89
2019-01-31T02:19:59.607Z,99636.99
2019-01-31T02:23:00.437Z,99644.88
2019-01-31T02:25:38.447Z,99647.58
2019-01-31T02:28:27.307Z,99645.34
2019-01-31T02:31:26.713Z,99650.02
2019-01-31T02:34:46.721Z,99645.11
2019-01-31T02:37:46.540Z,99638.39
2019-01-31T02:40:43.770Z,99646.05
2019-01-31T02:43:29.563Z,99644.96
2019-01-31T02:46:42.072Z,99644.84
2019-01-31T02:49:32.804Z,99644.75
2019-01-31T02:52:45.486Z,99646.25
2019-01-31T02:55:50.114Z,99645.88
2019-01-31T02:58:58.331Z,99646.73
2019-01-31T03:02:02.443Z,99643.48
2019-01-31T03:05:34.823Z,99640.83
2019-01-31T03:08:16.100Z,99643.91
2019-01-31T03:11:14.673Z,99645.95
2019-01-31T03:14:14.639Z,99644.34
2019-01-31T03:17:26.143Z,99638.53
2019-01-31T03:20:24.766Z,99640.11
2019-01-31T03:23:09.782Z,99645.94
2019-01-31T03:26:20.646Z,99640.43
2019-01-31T03:29:24.651Z,99641.12
2019-01-31T03:32:34.688Z,99644.77
2019-01-31T03:35:42.026Z,99643.88
2019-01-31T03:38:46.400Z,99640.21
2019-01-31T03:42:04.504Z,99641.77
2019-01-31T03:44:55.555Z,99645.95
2019-01-31T03:48:14.818Z,99647.39
2019-01-31T03:50:52.530Z,99642.73
2019-01-31T03:53:50.170Z,99640.85
2019-01-31T03:56:50.333Z,99643.84
2019-01-31T03:59:36.996Z,99645.95
2019-01-31T04:02:29.181Z,99645.95
2019-01-31T04:05:27.621Z,99642.53
2019-01-31T04:07:54.690Z,99643.09
2019-01-31T04:10:21.778Z,99655.34
2019-01-31T04:12:48.917Z,99648.03
2019-01-31T04:15:15.961Z,99650.84
2019-01-31T04:17:43.060Z,99651.02
2019-01-31T04:20:10.299Z,99649.98
2019-01-31T04:22:37.373Z,99654.12
2019-01-31T04:25:04.858Z,99658.91
2019-01-31T04:27:32.027Z,99652.91
2019-01-31T04:29:59.078Z,99656.23
2019-01-31T04:32:27.238Z,99657.49
2019-01-31T04:34:54.275Z,99653.02
2019-01-31T04:37:22.143Z,99650.78
2019-01-31T04:39:49.185Z,99651.44
2019-01-31T04:42:19.429Z,99648.17
2019-01-31T04:44:46.458Z,99652.38
2019-01-31T04:47:13.518Z,99652.03
2019-01-31T04:49:40.915Z,99657.02
2019-01-31T04:52:08.038Z,99656.58
2019-01-31T04:54:35.095Z,99665.50
2019-01-31T04:57:02.537Z,99659.81
2019-01-31T04:59:30.157Z,99668.45
2019-01-31T05:01:57.219Z,99660.13
2019-01-31T05:04:24.255Z,99670.14
2019-01-31T05:06:51.316Z,99669.17
2019-01-31T05:09:18.397Z,99667.66
2019-01-31T05:11:45.482Z,99672.42
2019-01-31T05:14:12.501Z,99670.02
2019-01-31T05:16:39.561Z,99669.98
2019-01-31T05:19:07.709Z,99678.98
2019-01-31T05:21:35.060Z,99679.52
2019-01-31T05:24:02.099Z,99675.75
2019-01-31T05:26:29.522Z,99675.28
2019-01-31T05:28:57.277Z,99685.28
2019-01-31T05:31:24.323Z,99688.30
2019-01-31T05:33:51.351Z,99693.72
2019-01-31T05:36:18.392Z,99692.59
2019-01-31T05:38:45.416Z,99694.33
2019-01-31T05:41:12.528Z,99695.13
2019-01-31T05:43:39.571Z,99699.45
2019-01-31T05:46:06.632Z,99706.44
2019-01-31T05:48:35.097Z,99706.61
2019-01-31T05:51:02.591Z,99698.02
2019-01-31T05:53:30.321Z,99707.03
2019-01-31T05:55:58.086Z,99710.91
2019-01-31T05:58:25.433Z,99711.58
2019-01-31T06:00:52.834Z,99709.59
2019-01-31T06:03:20.160Z,99710.23
2019-01-31T06:05:47.911Z,99714.73
2019-01-31T06:08:16.017Z,99716.55
2019-01-31T06:10:43.435Z,99711.95
2019-01-31T06:13:12.337Z,99715.05
2019-01-31T06:15:39.662Z,99717.00
2019-01-31T06:18:06.715Z,99719.45
2019-01-31T06:20:34.087Z,99726.27
2019-01-31T06:23:01.441Z,99726.72
2019-01-31T06:25:28.796Z,99728.48
2019-01-31T06:27:55.847Z,99739.56
2019-01-31T06:30:22.998Z,99737.54
2019-01-31T06:32:50.445Z,99735.82
2019-01-31T06:35:18.208Z,99743.95
2019-01-31T06:37:45.570Z,99743.33
2019-01-31T06:40:15.616Z,99747.42
2019-01-31T06:42:42.937Z,99749.69
2019-01-31T06:45:13.147Z,99753.73
2019-01-31T06:47:40.198Z,99755.34
2019-01-31T06:50:07.422Z,99753.61
2019-01-31T06:52:35.609Z,99764.36
2019-01-31T06:55:03.497Z,99767.29
2019-01-31T06:57:30.554Z,99762.20
2019-01-31T06:59:58.045Z,99768.09
2019-01-31T07:02:25.108Z,99768.32
2019-01-31T07:04:52.726Z,99777.38
2019-01-31T07:07:20.209Z,99768.37
2019-01-31T07:09:47.561Z,99780.45
2019-01-31T07:12:14.869Z,99782.73
2019-01-31T07:14:42.535Z,99777.56
2019-01-31T07:17:09.597Z,99781.73
2019-01-31T07:19:36.934Z,99786.42
2019-01-31T07:22:04.020Z,99786.45
2019-01-31T07:24:31.070Z,99791.07
2019-01-31T07:26:58.140Z,99783.70
2019-01-31T07:29:25.674Z,99790.81
2019-01-31T07:31:53.399Z,99794.63
2019-01-31T07:34:21.489Z,99795.94
2019-01-31T07:36:51.390Z,99792.91
2019-01-31T07:39:18.434Z,99780.95
2019-01-31T07:41:45.836Z,99774.94
2019-01-31T07:44:13.559Z,99775.84
2019-01-31T07:46:40.907Z,99782.22
2019-01-31T07:49:07.983Z,99775.89
2019-01-31T07:51:35.039Z,99772.41
2019-01-31T07:54:02.190Z,99782.12
2019-01-31T07:56:29.626Z,99774.67
2019-01-31T07:58:57.774Z,99776.12
2019-01-31T08:01:27.110Z,99781.16
2019-01-31T08:04:02.263Z,99777.36
2019-01-31T08:06:23.614Z,99780.61
2019-01-31T08:08:50.651Z,99782.81
2019-01-31T08:11:18.827Z,99785.97
2019-01-31T08:13:45.886Z,99783.31
2019-01-31T08:16:12.944Z,99786.52
2019-01-31T08:18:41.309Z,99793.25
2019-01-31T08:21:10.446Z,99793.31
2019-01-31T08:23:37.775Z,99804.61
2019-01-31T08:26:04.955Z,99800.51
2019-01-31T08:28:31.993Z,99802.87
2019-01-31T08:30:59.954Z,99809.30
2019-01-31T08:33:28.497Z,99806.16
2019-01-31T08:35:55.783Z,99806.40
2019-01-31T08:38:23.130Z,99811.69
2019-01-31T08:40:50.641Z,99813.98
2019-01-31T08:43:20.434Z,99806.94
2019-01-31T08:45:47.652Z,99816.17
2019-01-31T08:48:16.163Z,99815.11
2019-01-31T08:50:43.358Z,99817.72
2019-01-31T08:53:10.859Z,99814.12
2019-01-31T08:55:37.926Z,99821.17
2019-01-31T08:58:05.464Z,99819.16
2019-01-31T09:00:33.216Z,99822.96
2019-01-31T09:03:00.572Z,99829.47
2019-01-31T09:05:27.732Z,99830.08
2019-01-31T09:07:55.009Z,99827.78
2019-01-31T09:10:27.986Z,99831.27
2019-01-31T09:12:57.872Z,99831.41
2019-01-31T09:15:25.942Z,99837.01
2019-01-31T09:17:54.734Z,99836.95
2019-01-31T09:20:43.279Z,99843.14
2019-01-31T09:24:14.191Z,99841.70
2019-01-31T09:27:26.443Z,99846.05
2019-01-31T09:30:31.015Z,99852.75
2019-01-31T09:33:40.398Z,99857.58
2019-01-31T09:36:52.747Z,99860.89
2019-01-31T09:39:52.294Z,99863.29
2019-01-31T09:42:29.233Z,99863.70
2019-01-31T09:45:33.808Z,99867.27
2019-01-31T09:48:27.794Z,99868.88
2019-01-31T09:51:26.629Z,99869.52
2019-01-31T09:54:34.802Z,99870.98
2019-01-31T09:57:42.299Z,99868.55
2019-01-31T10:00:47.132Z,99868.38
2019-01-31T10:03:50.915Z,99866.23
2019-01-31T10:06:45.430Z,99871.30
2019-01-31T10:09:37.136Z,99863.67
2019-01-31T10:12:40.050Z,99866.28
2019-01-31T10:15:28.907Z,99873.06
2019-01-31T10:18:32.502Z,99876.95
2019-01-31T10:21:25.222Z,99872.13
2019-01-31T10:24:54.510Z,99866.27
2019-01-31T10:28:10.900Z,99868.36
2019-01-31T10:31:01.462Z,99868.48
2019-01-31T10:34:02.813Z,99873.44
2019-01-31T10:36:58.734Z,99875.52
2019-01-31T10:39:54.146Z,99869.02
2019-01-31T10:42:52.528Z,99869.02
2019-01-31T10:45:49.885Z,99865.02
2019-01-31T10:48:45.811Z,99869.55
2019-01-31T10:51:48.303Z,99875.27
2019-01-31T10:55:00.705Z,99867.24
2019-01-31T10:58:04.681Z,99873.80
2019-01-31T11:00:57.877Z,99879.34
2019-01-31T11:03:49.094Z,99876.53
2019-01-31T11:06:43.381Z,99873.47
2019-01-31T11:09:29.225Z,99872.41
2019-01-31T11:12:47.003Z,99877.80
2019-01-31T11:15:33.610Z,99875.12
2019-01-31T11:18:55.165Z,99878.91
2019-01-31T11:22:22.904Z,99878.57
2019-01-31T11:25:23.026Z,99886.41
2019-01-31T11:28:23.926Z,99888.74
2019-01-31T11:31:24.142Z,99889.99
2019-01-31T11:34:32.738Z,99882.44
2019-01-31T11:37:46.042Z,99891.85
2019-01-31T11:40:56.918Z,99886.89
2019-01-31T11:43:41.517Z,99893.39
2019-01-31T11:46:48.158Z,99889.22
2019-01-31T11:49:56.169Z,99894.99
2019-01-31T11:52:39.896Z,99897.04
2019-01-31T11:55:21.278Z,99890.20
2019-01-31T11:58:36.778Z,99886.86
2019-01-31T12:01:06.563Z,99889.38
2019-01-31T12:03:33.627Z,99887.98
2019-01-31T12:06:01.231Z,99893.27
2019-01-31T12:08:28.845Z,99893.38
2019-01-31T12:10:56.405Z,99888.98
2019-01-31T12:13:24.059Z,99891.34
2019-01-31T12:15:51.726Z,99898.63
2019-01-31T12:18:18.903Z,99897.04
2019-01-31T12:20:48.422Z,99887.33
2019-01-31T12:23:17.385Z,99889.11
2019-01-31T12:25:45.032Z,99889.22
2019-01-31T12:28:15.062Z,99892.49
2019-01-31T12:30:42.211Z,99890.75
2019-01-31T12:33:09.334Z,99892.36
2019-01-31T12:35:37.390Z,99896.63
2019-01-31T12:38:04.564Z,99893.27
2019-01-31T12:40:31.621Z,99895.50
2019-01-31T12:42:58.698Z,99890.22
2019-01-31T12:45:26.432Z,99897.23
2019-01-31T12:47:54.818Z,99892.51
2019-01-31T12:50:25.337Z,99898.21
2019-01-31T12:52:53.100Z,99896.20
2019-01-31T12:55:20.651Z,99901.00
2019-01-31T12:57:48.461Z,99907.16
2019-01-31T13:00:35.442Z,99900.88
2019-01-31T13:03:02.515Z,99897.98
2019-01-31T13:05:30.669Z,99904.19
2019-01-31T13:07:59.551Z,99910.28
2019-01-31T13:10:26.720Z,99902.62
2019-01-31T13:12:54.706Z,99910.66
2019-01-31T13:15:21.773Z,99913.05
2019-01-31T13:17:53.934Z,99912.91
2019-01-31T13:20:22.899Z,99913.70
2019-01-31T13:22:55.042Z,99910.13
2019-01-31T13:25:23.533Z,99913.42
2019-01-31T13:27:50.988Z,99914.09
2019-01-31T13:30:19.264Z,99916.56
2019-01-31T13:32:46.451Z,99922.50
2019-01-31T13:35:13.958Z,99918.38
2019-01-31T13:37:41.247Z,99923.02
2019-01-31T13:40:11.950Z,99924.31
2019-01-31T13:42:40.750Z,99928.33
2019-01-31T13:45:10.855Z,99936.14
2019-01-31T13:47:39.708Z,99933.16
2019-01-31T13:50:08.530Z,99938.50
2019-01-31T13:52:35.947Z,99947.66
2019-01-31T13:55:06.256Z,99934.14
2019-01-31T13:57:33.319Z,99933.98
2019-01-31T14:00:00.396Z,99934.75
2019-01-31T14:02:27.520Z,99935.20
2019-01-31T14:04:55.632Z,99942.53
2019-01-31T14:07:24.163Z,99938.13
2019-01-31T14:09:53.019Z,99945.64
2019-01-31T14:12:20.078Z,99940.40
2019-01-31T14:14:47.913Z,99932.84
2019-01-31T14:17:15.297Z,99931.03
2019-01-31T14:19:43.241Z,99932.65
2019-01-31T14:22:12.614Z,99930.68
2019-01-31T14:24:43.820Z,99934.05
2019-01-31T14:27:12.587Z,99934.22
2019-01-31T14:29:39.926Z,99926.94
2019-01-31T14:32:09.378Z,99944.98
2019-01-31T14:34:36.446Z,99936.42
2019-01-31T14:37:03.641Z,99945.45
2019-01-31T14:39:32.421Z,99949.34
2019-01-31T14:42:00.711Z,99953.41
2019-01-31T14:44:28.135Z,99940.11
2019-01-31T14:46:56.030Z,99950.10
2019-01-31T14:49:23.217Z,99950.53
2019-01-31T14:51:50.626Z,99955.37
2019-01-31T14:54:18.487Z,99951.55
2019-01-31T14:56:45.891Z,99960.73
2019-01-31T14:59:13.000Z,99967.61
2019-01-31T15:01:40.076Z,99966.19
2019-01-31T15:04:07.543Z,99958.94
2019-01-31T15:06:34.603Z,99965.55
2019-01-31T15:09:05.380Z,99963.77
2019-01-31T15:11:33.767Z,99967.09
2019-01-31T15:14:00.839Z,99967.48
2019-01-31T15:16:28.302Z,99962.86
2019-01-31T15:18:55.726Z,99958.00
2019-01-31T15:21:23.375Z,99957.56
2019-01-31T15:23:51.039Z,99960.59
2019-01-31T15:26:18.120Z,99962.49
2019-01-31T15:28:45.185Z,99972.13
2019-01-31T15:31:12.279Z,99967.60
2019-01-31T15:33:39.778Z,99972.09
2019-01-31T15:36:06.847Z,99970.85
2019-01-31T15:38:33.905Z,99971.96
2019-01-31T15:41:01.001Z,99973.56
2019-01-31T15:43:28.083Z,99971.84
2019-01-31T15:45:55.161Z,99972.79
2019-01-31T15:48:22.226Z,99971.83
2019-01-31T15:50:49.306Z,99978.87
2019-01-31T15:53:17.434Z,99980.98
2019-01-31T15:55:44.516Z,99979.53
2019-01-31T15:58:11.674Z,99980.48
2019-01-31T16:00:47.915Z,99982.55
2019-01-31T16:03:20.430Z,99984.12
2019-01-31T16:05:47.561Z,99982.67
2019-01-31T16:08:15.124Z,99975.44
2019-01-31T16:10:43.331Z,99984.94
2019-01-31T16:13:16.616Z,99984.95
2019-01-31T16:15:44.592Z,99983.13
2019-01-31T16:18:12.177Z,99988.84
2019-01-31T16:20:40.063Z,99980.93
2019-01-31T16:23:08.011Z,99985.42
2019-01-31T16:25:35.099Z,99986.61
2019-01-31T16:28:04.295Z,99987.13
2019-01-31T16:30:31.629Z,99990.90
2019-01-31T16:32:59.285Z,99993.65
2019-01-31T16:35:26.468Z,99996.89
2019-01-31T16:37:54.057Z,99999.01
2019-01-31T16:40:22.893Z,99992.92
2019-01-31T16:42:51.153Z,100000.14
2019-01-31T16:45:19.347Z,100002.26
2019-01-31T16:47:47.613Z,99996.88
2019-01-31T16:50:15.875Z,99996.72
2019-01-31T16:52:43.359Z,100002.06
2019-01-31T16:55:13.383Z,100000.55
2019-01-31T16:57:40.644Z,100001.60
2019-01-31T17:00:13.420Z,99999.01
2019-01-31T17:02:41.601Z,100007.86
2019-01-31T17:05:13.274Z,100006.58
2019-01-31T17:07:40.556Z,100005.91
2019-01-31T17:10:08.032Z,100008.94
2019-01-31T17:12:35.940Z,100012.28
2019-01-31T17:15:03.675Z,100007.50
2019-01-31T17:17:31.227Z,100009.51
2019-01-31T17:19:58.284Z,100009.02
2019-01-31T17:22:26.756Z,100014.80
2019-01-31T17:24:53.807Z,100014.06
2019-01-31T17:27:21.202Z,100013.73
2019-01-31T17:29:50.144Z,100012.27
2019-01-31T17:32:17.227Z,100010.88
2019-01-31T17:34:44.863Z,100011.91
2019-01-31T17:37:12.419Z,100019.24
2019-01-31T17:39:41.614Z,100021.56
2019-01-31T17:42:09.778Z,100027.05
2019-01-31T17:44:36.891Z,100022.91
2019-01-31T17:47:04.288Z,100020.36
2019-01-31T17:49:31.339Z,100023.55
2019-01-31T17:51:58.410Z,100026.04
2019-01-31T17:54:25.459Z,100019.20
2019-01-31T17:56:52.533Z,100025.44
2019-01-31T17:59:19.597Z,100019.20
2019-01-31T18:01:46.658Z,100017.70
2019-01-31T18:04:13.739Z,100016.41
2019-01-31T18:06:41.119Z,100018.09
2019-01-31T18:09:10.265Z,100009.38
2019-01-31T18:11:37.518Z,100011.28
2019-01-31T18:14:05.819Z,100016.80
2019-01-31T18:16:32.873Z,100017.48
2019-01-31T18:19:01.054Z,100013.55
2019-01-31T18:21:29.171Z,100014.47
2019-01-31T18:23:56.223Z,100006.89
2019-01-31T18:26:23.298Z,100010.53
2019-01-31T18:28:50.367Z,100005.20
2019-01-31T18:31:17.414Z,100011.45
2019-01-31T18:33:44.534Z,100007.00
2019-01-31T18:36:12.000Z,100007.03
2019-01-31T18:38:39.857Z,100008.14
2019-01-31T18:41:07.226Z,100008.64
2019-01-31T18:43:34.565Z,100015.48
2019-01-31T18:46:01.649Z,100022.45
2019-01-31T18:48:29.103Z,100008.05
2019-01-31T18:50:56.137Z,100015.23
2019-01-31T18:53:23.465Z,100020.88
2019-01-31T18:55:51.228Z,100012.27
2019-01-31T18:58:18.587Z,100014.14
2019-01-31T19:00:47.990Z,100014.59
2019-01-31T19:03:15.123Z,100015.66
2019-01-31T19:05:42.252Z,100010.97
2019-01-31T19:08:09.438Z,100012.44
2019-01-31T19:10:43.219Z,100018.09
2019-01-31T19:13:05.990Z,100011.58
2019-01-31T19:15:33.456Z,100014.56
2019-01-31T19:18:06.055Z,100008.58
2019-01-31T19:20:30.182Z,100006.73
2019-01-31T19:22:59.173Z,100006.09
2019-01-31T19:25:26.656Z,100005.38
2019-01-31T19:27:53.714Z,100006.39
2019-01-31T19:30:32.278Z,100002.89
2019-01-31T19:32:59.330Z,99998.81
2019-01-31T19:35:28.126Z,100000.73
2019-01-31T19:38:02.216Z,100003.60
2019-01-31T19:40:30.032Z,100001.58
2019-01-31T19:42:57.753Z,99991.31
2019-01-31T19:45:28.758Z,99997.99
2019-01-31T19:47:56.623Z,100001.23
2019-01-31T19:50:25.102Z,100000.62
2019-01-31T19:52:54.792Z,99998.56
2019-01-31T19:55:23.376Z,100000.09
2019-01-31T19:57:50.672Z,99994.84
2019-01-31T20:00:19.107Z,99996.47
2019-01-31T20:02:46.767Z,99991.77
2019-01-31T20:05:14.552Z,99994.08
2019-01-31T20:07:43.068Z,99985.23
2019-01-31T20:10:11.788Z,99990.95
2019-01-31T20:12:39.259Z,99990.09
2019-01-31T20:15:07.812Z,99989.56
2019-01-31T20:17:36.429Z,99990.67
2019-01-31T20:20:05.962Z,99992.23
2019-01-31T20:22:33.997Z,99991.07
2019-01-31T20:25:01.262Z,99986.34
2019-01-31T20:27:29.267Z,99990.25
2019-01-31T20:29:56.317Z,99984.03
2019-01-31T20:32:23.641Z,99985.39
2019-01-31T20:34:50.918Z,99985.95
2019-01-31T20:37:18.091Z,99986.01
2019-01-31T20:39:45.587Z,99992.52
2019-01-31T20:42:13.856Z,100000.58
2019-01-31T20:44:41.010Z,100001.67
2019-01-31T20:47:08.270Z,100011.89
2019-01-31T20:49:35.326Z,100003.70
2019-01-31T20:52:03.489Z,100005.41
2019-01-31T20:54:31.654Z,100001.11
2019-01-31T20:56:59.130Z,100006.45
2019-01-31T20:59:27.695Z,100012.48
2019-01-31T21:01:54.750Z,100010.42
2019-01-31T21:04:22.423Z,100018.45
2019-01-31T21:06:50.118Z,100021.62
2019-01-31T21:09:17.152Z,100010.94
2019-01-31T21:11:44.231Z,100018.21
2019-01-31T21:14:11.523Z,100027.06
2019-01-31T21:16:51.001Z,100028.62
2019-01-31T21:19:08.554Z,100027.14
2019-01-31T21:21:35.718Z,100025.34
2019-01-31T21:24:03.130Z,100030.23
2019-01-31T21:26:30.193Z,100030.05
2019-01-31T21:28:57.623Z,100026.84
2019-01-31T21:31:24.983Z,100033.55
2019-01-31T21:33:52.036Z,100027.55
2019-01-31T21:36:19.093Z,100025.54
2019-01-31T21:38:46.491Z,100018.65
2019-01-31T21:41:13.850Z,100022.95
2019-01-31T21:43:41.606Z,100027.25
2019-01-31T21:46:08.998Z,100017.97
2019-01-31T21:48:36.419Z,100022.73
2019-01-31T21:51:03.466Z,100023.19
2019-01-31T21:53:30.539Z,100024.89
2019-01-31T21:55:57.868Z,100026.78
2019-01-31T21:58:25.223Z,100026.79
2019-01-31T22:00:52.598Z,100024.62
2019-01-31T22:03:19.662Z,100022.72
2019-01-31T22:05:46.739Z,100020.73
2019-01-31T22:08:14.483Z,100020.52
2019-01-31T22:10:41.537Z,100028.48
2019-01-31T22:13:08.603Z,100023.02
2019-01-31T22:15:35.651Z,100018.95
2019-01-31T22:18:03.919Z,100016.68
2019-01-31T22:20:30.967Z,100017.69
2019-01-31T22:22:58.043Z,100013.25
2019-01-31T22:25:25.479Z,100014.47
2019-01-31T22:27:52.546Z,100014.80
2019-01-31T22:30:24.662Z,100018.89
2019-01-31T22:32:51.789Z,100017.20
2019-01-31T22:35:18.838Z,100020.00
2019-01-31T22:37:47.699Z,100019.22
2019-01-31T22:40:15.972Z,100014.14
2019-01-31T22:42:43.055Z,100008.76
2019-01-31T22:45:12.616Z,100003.53
2019-01-31T22:47:40.411Z,100008.23
2019-01-31T22:50:09.832Z,100008.58
2019-01-31T22:52:36.915Z,100013.80
2019-01-31T22:55:05.441Z,100009.50
2019-01-31T22:57:33.201Z,100002.27
2019-01-31T23:00:00.652Z,100001.50
2019-01-31T23:02:28.315Z,99996.49
2019-01-31T23:04:56.483Z,99994.69
2019-01-31T23:07:23.555Z,99988.77
2019-01-31T23:09:50.611Z,99987.78
2019-01-31T23:12:17.763Z,99981.28
2019-01-31T23:14:44.827Z,99981.81
2019-01-31T23:17:11.889Z,99978.94
2019-01-31T23:19:38.957Z,99983.60
2019-01-31T23:22:06.306Z,99974.08
2019-01-31T23:24:33.370Z,99979.15
2019-01-31T23:27:00.522Z,99969.20
2019-01-31T23:29:27.594Z,99966.68
2019-01-31T23:31:54.754Z,99964.52
2019-01-31T23:34:21.841Z,99968.84
2019-01-31T23:36:49.277Z,99961.95
2019-01-31T23:39:19.069Z,99965.02
2019-01-31T23:41:46.519Z,99964.84
2019-01-31T23:44:14.366Z,99963.87
2019-01-31T23:46:41.407Z,99963.83
2019-01-31T23:49:08.478Z,99964.34
2019-01-31T23:51:35.541Z,99965.16
2019-01-31T23:54:02.718Z,99963.05
2019-01-31T23:56:29.856Z,99959.92
2019-01-31T23:58:56.887Z,99960.97
